createdAt,value
2023-01-17T00:01:44.337Z,4.93
2023-01-17T00:07:31.272Z,4.90
2023-01-17T00:10:08.525Z,3.00
2023-01-17T00:12:48.144Z,8.52
2023-01-17T00:15:23.335Z,4.65
2023-01-17T00:17:57.134Z,6.82
2023-01-17T00:23:41.020Z,4.78
2023-01-17T00:26:19.600Z,4.25
2023-01-17T00:28:57.156Z,4.30
2023-01-17T00:31:29.284Z,6.35
2023-01-17T00:34:01.489Z,7.80
2023-01-17T00:36:33.676Z,7.45
2023-01-17T00:39:06.173Z,4.40
2023-01-17T00:41:39.691Z,3.25
2023-01-17T00:44:30.527Z,4.30
2023-01-17T00:47:21.000Z,3.88
2023-01-17T00:50:11.563Z,3.20
2023-01-17T00:53:02.297Z,3.92
2023-01-17T00:55:53.060Z,5.43
2023-01-17T00:58:45.266Z,3.67
2023-01-17T01:01:36.148Z,5.68
2023-01-17T01:04:27.157Z,3.85
2023-01-17T01:07:17.854Z,4.95
2023-01-17T01:10:08.526Z,5.40
2023-01-17T01:12:59.374Z,6.68
2023-01-17T01:15:51.666Z,5.78
2023-01-17T01:19:00.818Z,3.45
2023-01-17T01:21:54.332Z,6.38
2023-01-17T01:24:45.338Z,4.65
2023-01-17T01:27:36.739Z,5.78
2023-01-17T01:30:28.709Z,3.63
2023-01-17T01:33:20.177Z,5.32
2023-01-17T01:35:55.297Z,5.00
2023-01-17T01:38:28.689Z,6.20
2023-01-17T01:41:02.085Z,7.88
2023-01-17T01:43:45.481Z,4.55
2023-01-17T01:46:24.605Z,4.40
2023-01-17T01:49:02.688Z,6.47
2023-01-17T01:51:41.181Z,4.38
2023-01-17T01:54:20.950Z,3.80
2023-01-17T01:56:57.774Z,4.68
2023-01-17T01:59:31.884Z,6.13
2023-01-17T02:02:05.268Z,8.00
2023-01-17T02:04:40.265Z,5.53
2023-01-17T02:07:17.824Z,6.65
2023-01-17T02:09:51.223Z,4.57
2023-01-17T02:12:25.321Z,5.25
2023-01-17T02:14:59.676Z,6.45
2023-01-17T02:17:40.338Z,3.20
2023-01-17T02:20:40.571Z,5.38
2023-01-17T02:23:53.382Z,5.00
2023-01-17T02:26:53.804Z,3.65
2023-01-17T02:30:01.497Z,3.50
2023-01-17T02:32:54.715Z,4.50
2023-01-17T02:35:35.508Z,5.18
2023-01-17T02:38:17.550Z,3.47
2023-01-17T02:40:54.647Z,4.18
2023-01-17T02:43:28.867Z,4.75
2023-01-17T02:46:02.492Z,5.10
2023-01-17T02:48:38.288Z,4.03
2023-01-17T02:51:36.770Z,4.97
2023-01-17T02:54:26.180Z,4.90
2023-01-17T02:57:15.093Z,7.25
2023-01-17T03:00:00.848Z,4.55
2023-01-17T03:02:43.519Z,6.25
2023-01-17T03:05:23.128Z,3.42
2023-01-17T03:07:57.617Z,4.43
2023-01-17T03:10:33.813Z,4.63
2023-01-17T03:13:07.135Z,5.43
2023-01-17T03:15:41.130Z,6.18
2023-01-17T03:18:17.062Z,4.68
2023-01-17T03:20:54.053Z,5.97
2023-01-17T03:23:27.554Z,5.28
2023-01-17T03:26:00.898Z,4.15
2023-01-17T03:28:34.229Z,7.13
2023-01-17T03:31:07.727Z,3.72
2023-01-17T03:33:41.056Z,7.00
2023-01-17T03:36:15.857Z,4.75
2023-01-17T03:38:49.154Z,8.10
2023-01-17T03:41:22.547Z,5.93
2023-01-17T03:43:55.886Z,5.47
2023-01-17T03:46:29.693Z,5.78
2023-01-17T03:51:37.577Z,6.63
2023-01-17T03:54:11.001Z,5.55
2023-01-17T03:56:44.586Z,7.00
2023-01-17T03:59:17.974Z,5.65
2023-01-17T04:01:51.646Z,4.75
2023-01-17T04:04:25.044Z,5.50
2023-01-17T04:06:59.759Z,9.45
2023-01-17T04:09:34.539Z,5.00
2023-01-17T04:12:09.505Z,6.22
2023-01-17T04:14:42.967Z,8.60
2023-01-17T04:17:19.570Z,6.82
2023-01-17T04:19:52.989Z,4.97
2023-01-17T04:22:27.753Z,4.65
2023-01-17T04:25:01.105Z,5.60
2023-01-17T04:27:34.430Z,7.28
2023-01-17T04:30:08.766Z,3.70
2023-01-17T04:32:42.177Z,8.13
2023-01-17T04:35:15.784Z,5.75
2023-01-17T04:37:50.632Z,4.88
2023-01-17T04:40:24.003Z,5.65
2023-01-17T04:42:57.627Z,5.05
2023-01-17T04:45:30.949Z,12.27
2023-01-17T04:48:05.428Z,4.65
2023-01-17T04:50:38.981Z,4.10
2023-01-17T04:53:13.656Z,6.00
2023-01-17T04:55:47.153Z,5.22
2023-01-17T04:58:20.512Z,4.97
2023-01-17T05:00:54.895Z,5.90
2023-01-17T05:03:29.500Z,4.25
2023-01-17T05:06:03.317Z,5.93
2023-01-17T05:08:38.019Z,4.80
2023-01-17T05:11:11.357Z,6.00
2023-01-17T05:13:44.662Z,7.00
2023-01-17T05:16:19.540Z,3.85
2023-01-17T05:18:53.605Z,5.40
2023-01-17T05:21:26.946Z,7.45
2023-01-17T05:24:01.631Z,3.95
2023-01-17T05:26:34.980Z,4.03
2023-01-17T05:29:08.418Z,6.03
2023-01-17T05:31:41.727Z,7.30
2023-01-17T05:34:15.030Z,8.25
2023-01-17T05:36:48.335Z,3.30
2023-01-17T05:39:23.023Z,8.10
2023-01-17T05:41:56.321Z,6.03
2023-01-17T05:44:29.620Z,12.15
2023-01-17T05:47:03.097Z,6.15
2023-01-17T05:49:36.383Z,6.32
2023-01-17T05:52:09.892Z,3.72
2023-01-17T05:54:44.567Z,7.97
2023-01-17T05:57:17.936Z,6.63
2023-01-17T05:59:51.212Z,6.57
2023-01-17T06:02:24.596Z,6.20
2023-01-17T06:04:57.877Z,9.05
2023-01-17T06:07:31.209Z,6.00
2023-01-17T06:10:06.690Z,6.20
2023-01-17T06:12:39.979Z,6.47
2023-01-17T06:15:15.109Z,5.88
2023-01-17T06:17:48.420Z,4.78
2023-01-17T06:20:21.694Z,10.02
2023-01-17T06:22:55.359Z,4.28
2023-01-17T06:25:30.048Z,7.07
2023-01-17T06:28:03.608Z,5.75
2023-01-17T06:30:37.583Z,6.88
2023-01-17T06:33:11.026Z,5.50
2023-01-17T06:35:49.580Z,6.88
2023-01-17T06:38:23.248Z,6.82
2023-01-17T06:43:34.969Z,4.25
2023-01-17T06:46:08.393Z,6.55
2023-01-17T06:48:43.606Z,3.95
2023-01-17T06:51:17.387Z,8.00
2023-01-17T06:53:50.707Z,8.77
2023-01-17T06:56:25.458Z,10.65
2023-01-17T06:58:58.823Z,4.57
2023-01-17T07:01:32.507Z,4.45
2023-01-17T07:04:06.340Z,12.00
2023-01-17T07:09:12.791Z,4.88
2023-01-17T07:11:47.503Z,8.60
2023-01-17T07:14:20.785Z,5.28
2023-01-17T07:16:54.144Z,11.15
2023-01-17T07:19:27.441Z,6.03
2023-01-17T07:22:03.455Z,4.95
2023-01-17T07:24:37.655Z,6.45
2023-01-17T07:27:12.397Z,8.43
2023-01-17T07:29:48.654Z,9.93
2023-01-17T07:32:21.984Z,8.05
2023-01-17T07:34:57.616Z,7.63
2023-01-17T07:37:31.012Z,9.35
2023-01-17T07:40:04.938Z,11.95
2023-01-17T07:42:39.662Z,6.47
2023-01-17T07:45:14.897Z,6.28
2023-01-17T07:47:50.080Z,10.18
2023-01-17T07:50:23.478Z,7.60
2023-01-17T07:52:56.890Z,9.82
2023-01-17T07:55:30.319Z,9.60
2023-01-17T07:58:05.133Z,10.75
2023-01-17T08:00:38.572Z,13.10
2023-01-17T08:03:14.858Z,12.60
2023-01-17T08:05:56.193Z,10.10
2023-01-17T08:08:30.009Z,10.73
2023-01-17T08:13:37.867Z,8.98
2023-01-17T08:16:11.952Z,12.23
2023-01-17T08:18:45.306Z,8.60
2023-01-17T08:21:19.217Z,8.82
2023-01-17T08:23:53.401Z,8.10
2023-01-17T08:26:26.746Z,6.07
2023-01-17T08:29:02.498Z,8.90
2023-01-17T08:31:36.786Z,6.68
2023-01-17T08:34:10.219Z,9.32
2023-01-17T08:36:44.141Z,8.00
2023-01-17T08:39:17.631Z,6.55
2023-01-17T08:41:51.011Z,8.30
2023-01-17T08:44:25.880Z,7.28
2023-01-17T08:46:59.304Z,6.68
2023-01-17T08:49:32.650Z,8.63
2023-01-17T08:52:06.552Z,5.63
2023-01-17T08:54:39.879Z,7.63
2023-01-17T08:57:13.217Z,7.43
2023-01-17T08:59:47.962Z,6.28
2023-01-17T09:02:21.574Z,8.80
2023-01-17T09:04:55.122Z,7.13
2023-01-17T09:07:28.508Z,5.55
2023-01-17T09:10:01.861Z,6.47
2023-01-17T09:12:36.871Z,5.53
2023-01-17T09:15:14.648Z,5.18
2023-01-17T09:17:48.322Z,6.47
2023-01-17T09:20:21.654Z,7.03
2023-01-17T09:22:54.993Z,9.02
2023-01-17T09:25:28.359Z,6.78
2023-01-17T09:28:01.675Z,6.75
2023-01-17T09:30:36.383Z,6.70
2023-01-17T09:33:09.916Z,6.45
2023-01-17T09:35:43.461Z,9.80
2023-01-17T09:38:17.648Z,5.40
2023-01-17T09:40:51.507Z,13.88
2023-01-17T09:46:02.011Z,4.20
2023-01-17T09:48:38.580Z,5.40
2023-01-17T09:51:19.519Z,4.93
2023-01-17T09:53:54.283Z,3.97
2023-01-17T09:56:33.319Z,4.30
2023-01-17T09:59:33.281Z,4.95
2023-01-17T10:02:32.338Z,5.75
2023-01-17T10:05:26.910Z,5.97
2023-01-17T10:08:16.227Z,6.05
2023-01-17T10:11:07.277Z,6.03
2023-01-17T10:13:48.275Z,5.50
2023-01-17T10:16:32.816Z,6.10
2023-01-17T10:19:15.638Z,5.10
2023-01-17T10:22:10.239Z,4.20
2023-01-17T10:25:16.200Z,5.63
2023-01-17T10:27:56.636Z,4.40
2023-01-17T10:30:36.053Z,6.22
2023-01-17T10:33:20.083Z,6.15
2023-01-17T10:35:57.871Z,10.15
2023-01-17T10:38:33.959Z,11.65
2023-01-17T10:41:11.740Z,8.18
2023-01-17T10:43:51.950Z,8.45
2023-01-17T10:49:28.796Z,7.43
2023-01-17T10:52:31.222Z,16.17
2023-01-17T10:55:17.026Z,10.27
2023-01-17T10:57:52.040Z,5.65
2023-01-17T11:00:43.985Z,6.05
2023-01-17T11:03:20.742Z,6.95
2023-01-17T11:06:17.089Z,8.52
2023-01-17T11:08:54.277Z,5.20
2023-01-17T11:11:31.956Z,6.68
2023-01-17T11:14:08.859Z,8.32
2023-01-17T11:16:42.304Z,7.15
2023-01-17T11:19:22.441Z,6.57
2023-01-17T11:21:58.605Z,7.05
2023-01-17T11:24:37.440Z,9.57
2023-01-17T11:27:26.196Z,8.63
2023-01-17T11:30:16.828Z,5.10
2023-01-17T11:32:54.300Z,6.32
2023-01-17T11:35:30.440Z,9.18
2023-01-17T11:38:12.635Z,5.85
2023-01-17T11:40:48.511Z,8.88
2023-01-17T11:43:24.215Z,6.88
2023-01-17T11:46:15.786Z,6.22
2023-01-17T11:48:51.646Z,8.90
2023-01-17T11:51:28.592Z,9.02
2023-01-17T11:54:12.509Z,8.45
2023-01-17T11:56:47.310Z,5.03
2023-01-17T11:59:31.388Z,6.95
2023-01-17T12:04:54.834Z,6.35
2023-01-17T12:07:36.700Z,6.35
2023-01-17T12:10:18.971Z,5.40
2023-01-17T12:13:19.500Z,5.38
2023-01-17T12:16:22.107Z,7.55
2023-01-17T12:19:04.805Z,6.50
2023-01-17T12:21:47.812Z,7.07
2023-01-17T12:24:38.620Z,6.68
2023-01-17T12:27:22.808Z,5.50
2023-01-17T12:30:18.611Z,6.40
2023-01-17T12:33:13.168Z,5.97
2023-01-17T12:35:52.925Z,6.85
2023-01-17T12:38:33.287Z,7.13
2023-01-17T12:41:12.351Z,8.35
2023-01-17T12:43:46.247Z,10.75
2023-01-17T12:46:27.212Z,7.13
2023-01-17T12:49:05.678Z,7.70
2023-01-17T12:51:42.994Z,8.15
2023-01-17T12:54:22.168Z,8.38
2023-01-17T12:56:59.942Z,5.78
2023-01-17T12:59:40.376Z,6.70
2023-01-17T13:02:23.670Z,8.50
2023-01-17T13:05:00.110Z,6.68
2023-01-17T13:07:42.516Z,6.00
2023-01-17T13:10:33.424Z,7.18
2023-01-17T13:13:24.039Z,5.90
2023-01-17T13:16:01.990Z,10.40
2023-01-17T13:18:39.141Z,9.18
2023-01-17T13:21:37.607Z,6.85
2023-01-17T13:24:36.957Z,6.20
2023-01-17T13:27:30.069Z,8.40
2023-01-17T13:30:23.820Z,7.93
2023-01-17T13:33:10.343Z,9.65
2023-01-17T13:35:55.138Z,8.93
2023-01-17T13:38:55.840Z,10.00
2023-01-17T13:41:46.719Z,6.85
2023-01-17T13:44:23.202Z,8.77
2023-01-17T13:47:01.988Z,6.65
2023-01-17T13:49:48.457Z,8.75
2023-01-17T13:52:33.559Z,7.68
2023-01-17T13:55:07.909Z,7.65
2023-01-17T13:57:42.291Z,8.18
2023-01-17T14:00:55.071Z,6.65
2023-01-17T14:04:04.247Z,9.20
2023-01-17T14:06:44.537Z,9.10
2023-01-17T14:09:23.061Z,7.65
2023-01-17T14:12:06.678Z,9.10
2023-01-17T14:14:49.877Z,8.45
2023-01-17T14:17:58.281Z,7.50
2023-01-17T14:21:04.401Z,10.35
2023-01-17T14:24:03.827Z,8.27
2023-01-17T14:26:56.379Z,10.20
2023-01-17T14:29:55.931Z,10.13
2023-01-17T14:32:33.143Z,9.43
2023-01-17T14:35:09.231Z,10.80
2023-01-17T14:37:46.815Z,10.52
2023-01-17T14:40:21.945Z,12.10
2023-01-17T14:43:02.054Z,11.00
2023-01-17T14:45:36.948Z,14.88
2023-01-17T14:48:19.668Z,12.45
2023-01-17T14:50:57.318Z,12.85
2023-01-17T14:53:32.123Z,11.65
2023-01-17T14:56:15.827Z,15.93
2023-01-17T14:59:04.539Z,12.98
2023-01-17T15:01:55.185Z,12.10
2023-01-17T15:04:39.784Z,12.40
2023-01-17T15:07:19.595Z,11.20
2023-01-17T15:09:53.142Z,12.85
2023-01-17T15:12:26.840Z,16.27
2023-01-17T15:17:35.505Z,11.68
2023-01-17T15:20:17.127Z,13.27
2023-01-17T15:22:51.245Z,12.10
2023-01-17T15:25:24.632Z,13.30
2023-01-17T15:27:58.185Z,9.52
2023-01-17T15:30:33.169Z,10.93
2023-01-17T15:33:06.544Z,12.65
2023-01-17T15:35:40.009Z,14.82
2023-01-17T15:38:16.187Z,16.90
2023-01-17T15:40:49.683Z,13.63
2023-01-17T15:43:31.698Z,13.65
2023-01-17T15:46:06.740Z,12.20
2023-01-17T15:48:43.348Z,10.13
2023-01-17T15:51:31.773Z,9.85
2023-01-17T15:54:40.638Z,9.73
2023-01-17T15:57:24.522Z,8.80
2023-01-17T16:00:01.243Z,13.52
2023-01-17T16:02:43.911Z,12.80
2023-01-17T16:05:43.897Z,13.70
2023-01-17T16:08:39.243Z,11.85
2023-01-17T16:11:13.494Z,11.20
2023-01-17T16:13:47.442Z,9.95
2023-01-17T16:16:23.223Z,11.77
2023-01-17T16:19:03.662Z,12.43
2023-01-17T16:21:36.999Z,10.57
2023-01-17T16:24:11.960Z,9.98
2023-01-17T16:26:45.242Z,9.32
2023-01-17T16:29:18.779Z,10.07
2023-01-17T16:31:52.278Z,10.00
2023-01-17T16:34:26.999Z,9.68
2023-01-17T16:37:00.364Z,9.80
2023-01-17T16:39:34.540Z,8.73
2023-01-17T16:42:07.866Z,7.43
2023-01-17T16:44:41.246Z,9.95
2023-01-17T16:47:14.694Z,12.77
2023-01-17T16:49:49.562Z,14.75
2023-01-17T16:52:22.984Z,17.73
2023-01-17T16:54:56.459Z,10.40
2023-01-17T16:57:29.784Z,14.43
2023-01-17T17:00:03.851Z,13.13
2023-01-17T17:02:38.588Z,11.82
2023-01-17T17:05:13.394Z,11.07
2023-01-17T17:07:50.747Z,13.23
2023-01-17T17:10:27.541Z,13.02
2023-01-17T17:13:02.887Z,15.20
2023-01-17T17:15:36.443Z,15.38
2023-01-17T17:18:14.335Z,15.40
2023-01-17T17:20:49.532Z,15.38
2023-01-17T17:23:22.942Z,16.77
2023-01-17T17:25:57.208Z,15.02
2023-01-17T17:28:30.563Z,18.60
2023-01-17T17:31:08.703Z,20.67
2023-01-17T17:33:42.195Z,17.75
2023-01-17T17:36:17.510Z,20.77
2023-01-17T17:38:53.900Z,22.65
2023-01-17T17:41:29.035Z,21.13
2023-01-17T17:44:03.544Z,18.27
2023-01-17T17:46:37.302Z,18.95
2023-01-17T17:51:45.605Z,18.92
2023-01-17T17:54:22.182Z,18.40
2023-01-17T17:56:55.934Z,20.33
2023-01-17T17:59:29.971Z,16.42
2023-01-17T18:02:06.125Z,16.10
2023-01-17T18:04:39.582Z,17.10
2023-01-17T18:07:14.363Z,16.15
2023-01-17T18:09:49.300Z,15.98
2023-01-17T18:12:22.572Z,20.83
2023-01-17T18:14:55.929Z,14.52
2023-01-17T18:17:29.273Z,15.52
2023-01-17T18:20:02.830Z,14.20
2023-01-17T18:22:37.694Z,20.27
2023-01-17T18:25:12.695Z,12.82
2023-01-17T18:27:46.051Z,12.00
2023-01-17T18:30:19.649Z,15.70
2023-01-17T18:32:52.989Z,13.90
2023-01-17T18:35:26.510Z,13.23
2023-01-17T18:38:01.308Z,17.67
2023-01-17T18:40:35.887Z,11.95
2023-01-17T18:43:09.189Z,12.40
2023-01-17T18:45:42.562Z,16.15
2023-01-17T18:48:15.923Z,16.33
2023-01-17T18:50:57.180Z,11.63
2023-01-17T18:53:34.038Z,11.98
2023-01-17T18:56:09.284Z,11.45
2023-01-17T18:58:43.896Z,18.00
2023-01-17T19:01:19.338Z,12.77
2023-01-17T19:03:54.865Z,16.38
2023-01-17T19:06:31.034Z,15.10
2023-01-17T19:09:07.198Z,13.40
2023-01-17T19:11:40.845Z,16.15
2023-01-17T19:14:14.508Z,13.63
2023-01-17T19:16:47.817Z,14.23
2023-01-17T19:19:21.211Z,13.32
2023-01-17T19:21:54.630Z,14.48
2023-01-17T19:24:29.535Z,13.90
2023-01-17T19:27:03.235Z,13.45
2023-01-17T19:29:37.101Z,12.30
2023-01-17T19:32:10.446Z,15.00
2023-01-17T19:34:43.730Z,13.00
2023-01-17T19:37:17.158Z,17.33
2023-01-17T19:39:54.072Z,14.52
2023-01-17T19:42:28.715Z,11.57
2023-01-17T19:45:02.305Z,14.15
2023-01-17T19:47:36.000Z,12.63
2023-01-17T19:50:12.273Z,12.90
2023-01-17T19:52:45.714Z,16.77
2023-01-17T19:55:25.686Z,12.93
2023-01-17T19:57:59.302Z,14.88
2023-01-17T20:00:46.001Z,16.30
2023-01-17T20:03:19.684Z,14.25
2023-01-17T20:05:57.688Z,18.30
2023-01-17T20:08:31.199Z,13.40
2023-01-17T20:11:08.368Z,13.68
2023-01-17T20:13:42.339Z,14.10
2023-01-17T20:16:18.083Z,14.43
2023-01-17T20:18:52.067Z,18.05
2023-01-17T20:21:26.993Z,14.55
2023-01-17T20:24:03.292Z,11.80
2023-01-17T20:26:38.160Z,10.98
2023-01-17T20:29:14.411Z,12.70
2023-01-17T20:31:52.534Z,10.45
2023-01-17T20:34:26.651Z,12.80
2023-01-17T20:37:00.086Z,13.80
2023-01-17T20:39:33.494Z,11.10
2023-01-17T20:42:08.313Z,14.88
2023-01-17T20:44:41.724Z,10.73
2023-01-17T20:47:15.068Z,13.55
2023-01-17T20:49:48.391Z,13.82
2023-01-17T20:52:21.762Z,18.42
2023-01-17T20:54:55.281Z,12.35
2023-01-17T20:57:31.324Z,11.77
2023-01-17T21:00:06.033Z,11.07
2023-01-17T21:02:39.350Z,14.32
2023-01-17T21:05:13.011Z,13.90
2023-01-17T21:07:46.418Z,11.50
2023-01-17T21:10:20.426Z,13.23
2023-01-17T21:12:55.105Z,12.70
2023-01-17T21:15:28.552Z,11.48
2023-01-17T21:18:01.850Z,14.80
2023-01-17T21:20:36.424Z,11.65
2023-01-17T21:23:15.221Z,16.38
2023-01-17T21:25:58.522Z,12.15
2023-01-17T21:28:37.248Z,13.93
2023-01-17T21:31:19.535Z,15.07
2023-01-17T21:33:54.782Z,14.13
2023-01-17T21:36:30.598Z,13.70
2023-01-17T21:39:06.989Z,12.02
2023-01-17T21:41:41.748Z,11.73
2023-01-17T21:44:19.753Z,15.85
2023-01-17T21:46:56.191Z,15.75
2023-01-17T21:49:29.904Z,16.65
2023-01-17T21:52:21.557Z,24.23
2023-01-17T21:55:12.487Z,17.45
2023-01-17T21:58:03.030Z,15.43
2023-01-17T22:00:38.211Z,13.38
2023-01-17T22:03:11.536Z,16.90
2023-01-17T22:05:44.848Z,12.65
2023-01-17T22:08:18.175Z,14.48
2023-01-17T22:10:51.803Z,12.18
2023-01-17T22:13:25.319Z,15.65
2023-01-17T22:16:01.539Z,15.00
2023-01-17T22:18:37.290Z,12.45
2023-01-17T22:21:13.686Z,12.30
2023-01-17T22:23:47.701Z,12.38
2023-01-17T22:26:22.091Z,13.50
2023-01-17T22:28:55.881Z,15.20
2023-01-17T22:31:30.673Z,12.93
2023-01-17T22:34:05.968Z,13.32
2023-01-17T22:36:39.498Z,12.13
2023-01-17T22:39:12.976Z,13.18
2023-01-17T22:41:46.422Z,12.73
2023-01-17T22:44:19.786Z,12.23
2023-01-17T22:46:54.527Z,15.55
2023-01-17T22:49:27.917Z,13.85
2023-01-17T22:52:01.223Z,12.98
2023-01-17T22:54:34.768Z,9.88
2023-01-17T22:57:08.458Z,10.93
2023-01-17T23:02:16.736Z,15.38
2023-01-17T23:04:50.385Z,12.15
2023-01-17T23:07:26.728Z,14.63
2023-01-17T23:10:00.261Z,14.43
2023-01-17T23:12:33.595Z,12.88
2023-01-17T23:15:25.352Z,13.43
2023-01-17T23:18:17.320Z,11.55
2023-01-17T23:20:50.799Z,13.60
2023-01-17T23:23:24.410Z,10.35
2023-01-17T23:26:01.379Z,12.45
2023-01-17T23:28:36.742Z,10.32
2023-01-17T23:31:12.537Z,13.50
2023-01-17T23:33:49.952Z,9.80
2023-01-17T23:36:26.192Z,13.50
2023-01-17T23:38:59.620Z,9.05
2023-01-17T23:41:50.523Z,9.40
2023-01-17T23:44:27.214Z,10.68
2023-01-17T23:47:00.938Z,9.65
2023-01-17T23:49:35.695Z,11.60
2023-01-17T23:52:09.015Z,11.90
2023-01-17T23:54:47.351Z,9.85
2023-01-17T23:57:26.289Z,15.40
